createdAt,value
2023-04-17T00:01:04.191Z,43.65
2023-04-17T00:02:10.909Z,44.36
2023-04-17T00:03:14.250Z,40.86
2023-04-17T00:04:18.480Z,40.47
2023-04-17T00:05:23.445Z,42.18
2023-04-17T00:06:27.554Z,42.44
2023-04-17T00:07:30.019Z,46.78
2023-04-17T00:08:34.948Z,44.59
2023-04-17T00:09:37.825Z,45.68
2023-04-17T00:10:44.417Z,40.62
2023-04-17T00:11:51.072Z,39.72
2023-04-17T00:12:54.611Z,41.39
2023-04-17T00:13:57.193Z,42.32
2023-04-17T00:15:00.948Z,39.98
2023-04-17T00:16:03.901Z,42.16
2023-04-17T00:17:07.254Z,41.34
2023-04-17T00:18:13.180Z,40.54
2023-04-17T00:19:17.047Z,42.83
2023-04-17T00:20:19.878Z,43.17
2023-04-17T00:21:23.328Z,42.43
2023-04-17T00:22:25.862Z,40.03
2023-04-17T00:23:29.642Z,41.35
2023-04-17T00:24:32.259Z,40.94
2023-04-17T00:25:35.599Z,39.85
2023-04-17T00:26:38.083Z,40.82
2023-04-17T00:27:43.365Z,41.40
2023-04-17T00:28:47.770Z,41.03
2023-04-17T00:29:50.977Z,38.77
2023-04-17T00:30:53.314Z,41.91
2023-04-17T00:31:56.740Z,39.71
2023-04-17T00:32:59.225Z,40.15
2023-04-17T00:34:02.695Z,39.31
2023-04-17T00:35:05.735Z,40.51
2023-04-17T00:36:13.737Z,41.19
2023-04-17T00:37:16.183Z,41.81
2023-04-17T00:38:19.695Z,41.49
2023-04-17T00:39:22.162Z,43.79
2023-04-17T00:40:25.934Z,42.29
2023-04-17T00:41:28.515Z,40.68
2023-04-17T00:42:32.845Z,41.23
2023-04-17T00:43:36.769Z,40.46
2023-04-17T00:44:40.325Z,38.98
2023-04-17T00:45:42.812Z,38.55
2023-04-17T00:46:47.810Z,41.47
2023-04-17T00:47:52.197Z,37.63
2023-04-17T00:48:56.275Z,38.08
2023-04-17T00:49:59.227Z,37.89
2023-04-17T00:51:03.585Z,39.26
2023-04-17T00:52:11.631Z,38.06
2023-04-17T00:53:15.834Z,38.50
2023-04-17T00:54:19.383Z,37.63
2023-04-17T00:55:26.259Z,38.15
2023-04-17T00:56:30.160Z,38.79
2023-04-17T00:57:35.827Z,39.34
2023-04-17T00:58:41.339Z,40.33
2023-04-17T00:59:46.978Z,44.51
2023-04-17T01:00:50.069Z,43.03
2023-04-17T01:01:54.436Z,43.22
2023-04-17T01:02:57.904Z,44.12
2023-04-17T01:04:05.360Z,44.65
2023-04-17T01:05:09.070Z,45.69
2023-04-17T01:06:13.865Z,43.28
2023-04-17T01:07:16.804Z,44.58
2023-04-17T01:08:21.029Z,47.24
2023-04-17T01:09:24.205Z,43.78
2023-04-17T01:10:27.944Z,43.74
2023-04-17T01:11:31.414Z,42.93
2023-04-17T01:12:35.916Z,42.53
2023-04-17T01:13:46.703Z,45.09
2023-04-17T01:14:51.637Z,44.22
2023-04-17T01:15:54.293Z,43.84
2023-04-17T01:16:58.234Z,42.17
2023-04-17T01:18:01.638Z,42.65
2023-04-17T01:19:06.532Z,42.42
2023-04-17T01:20:11.162Z,43.77
2023-04-17T01:21:15.248Z,43.64
2023-04-17T01:22:18.188Z,44.15
2023-04-17T01:23:21.652Z,43.42
2023-04-17T01:24:25.891Z,42.42
2023-04-17T01:25:29.900Z,42.44
2023-04-17T01:26:32.724Z,42.72
2023-04-17T01:27:36.708Z,42.29
2023-04-17T01:28:39.503Z,42.17
2023-04-17T01:29:43.939Z,44.79
2023-04-17T01:30:46.830Z,43.06
2023-04-17T01:31:50.545Z,42.96
2023-04-17T01:32:54.656Z,43.26
2023-04-17T01:33:58.228Z,43.58
2023-04-17T01:35:00.662Z,42.54
2023-04-17T01:36:04.658Z,42.87
2023-04-17T01:37:07.702Z,42.90
2023-04-17T01:38:11.603Z,42.91
2023-04-17T01:39:15.910Z,42.86
2023-04-17T01:40:21.079Z,42.59
2023-04-17T01:41:23.609Z,42.86
2023-04-17T01:42:27.598Z,44.35
2023-04-17T01:43:30.476Z,43.25
2023-04-17T01:44:34.203Z,44.10
2023-04-17T01:45:36.719Z,42.99
2023-04-17T01:46:40.268Z,41.44
2023-04-17T01:47:42.749Z,42.79
2023-04-17T01:48:46.468Z,43.86
2023-04-17T01:49:49.567Z,43.06
2023-04-17T01:50:53.095Z,42.05
2023-04-17T01:51:55.450Z,42.64
2023-04-17T01:52:59.550Z,41.68
2023-04-17T01:54:02.125Z,42.90
2023-04-17T01:55:06.447Z,42.78
2023-04-17T01:56:10.756Z,43.42
2023-04-17T01:57:14.185Z,42.57
2023-04-17T01:58:16.683Z,43.42
2023-04-17T01:59:20.222Z,43.57
2023-04-17T02:00:23.389Z,43.45
2023-04-17T02:01:26.894Z,44.23
2023-04-17T02:02:29.273Z,43.39
2023-04-17T02:03:33.364Z,44.13
2023-04-17T02:04:35.914Z,44.38
2023-04-17T02:05:39.471Z,44.37
2023-04-17T02:06:42.506Z,44.97
2023-04-17T02:07:46.093Z,45.50
2023-04-17T02:08:48.458Z,45.40
2023-04-17T02:09:51.829Z,47.91
2023-04-17T02:10:54.178Z,46.41
2023-04-17T02:11:59.216Z,46.14
2023-04-17T02:13:01.888Z,46.64
2023-04-17T02:14:05.602Z,47.04
2023-04-17T02:15:09.332Z,47.43
2023-04-17T02:16:12.974Z,47.82
2023-04-17T02:17:15.644Z,47.94
2023-04-17T02:18:19.616Z,48.42
2023-04-17T02:19:23.446Z,47.91
2023-04-17T02:20:27.124Z,48.16
2023-04-17T02:21:29.635Z,48.15
2023-04-17T02:22:33.085Z,48.28
2023-04-17T02:23:35.554Z,48.63
2023-04-17T02:24:39.311Z,48.59
2023-04-17T02:25:41.675Z,49.13
2023-04-17T02:26:46.320Z,48.85
2023-04-17T02:27:51.119Z,48.09
2023-04-17T02:28:54.578Z,48.90
2023-04-17T02:29:57.102Z,48.18
2023-04-17T02:31:00.816Z,50.08
2023-04-17T02:32:03.536Z,49.15
2023-04-17T02:33:07.486Z,48.85
2023-04-17T02:34:10.194Z,48.34
2023-04-17T02:35:13.662Z,46.79
2023-04-17T02:36:16.671Z,46.02
2023-04-17T02:37:20.069Z,48.57
2023-04-17T02:38:22.618Z,46.60
2023-04-17T02:39:27.343Z,46.13
2023-04-17T02:40:29.783Z,46.57
2023-04-17T02:41:33.503Z,48.01
2023-04-17T02:42:36.285Z,48.51
2023-04-17T02:43:41.813Z,47.69
2023-04-17T02:44:46.559Z,47.97
2023-04-17T02:45:49.829Z,48.22
2023-04-17T02:46:52.407Z,48.86
2023-04-17T02:47:56.150Z,48.31
2023-04-17T02:48:58.856Z,48.15
2023-04-17T02:50:03.168Z,48.83
2023-04-17T02:51:06.091Z,47.82
2023-04-17T02:52:10.527Z,47.99
2023-04-17T02:53:13.296Z,48.27
2023-04-17T02:54:17.095Z,48.07
2023-04-17T02:55:21.334Z,47.92
2023-04-17T02:56:24.914Z,47.99
2023-04-17T02:57:27.819Z,47.88
2023-04-17T02:58:31.211Z,47.58
2023-04-17T02:59:35.013Z,47.74
2023-04-17T03:00:40.889Z,48.62
2023-04-17T03:01:45.832Z,49.47
2023-04-17T03:02:49.818Z,48.47
2023-04-17T03:03:53.043Z,48.09
2023-04-17T03:04:56.947Z,49.75
2023-04-17T03:05:59.412Z,49.50
2023-04-17T03:07:04.217Z,47.49
2023-04-17T03:08:06.880Z,47.22
2023-04-17T03:09:12.484Z,47.26
2023-04-17T03:10:15.859Z,46.49
2023-04-17T03:11:19.274Z,46.87
2023-04-17T03:12:21.784Z,46.70
2023-04-17T03:13:26.031Z,47.09
2023-04-17T03:14:28.709Z,47.08
2023-04-17T03:15:33.863Z,46.29
2023-04-17T03:16:36.672Z,46.80
2023-04-17T03:17:40.613Z,46.65
2023-04-17T03:18:43.098Z,49.04
2023-04-17T03:19:47.115Z,46.71
2023-04-17T03:20:49.527Z,45.36
2023-04-17T03:21:53.678Z,44.52
2023-04-17T03:22:56.936Z,43.94
2023-04-17T03:24:00.653Z,44.86
2023-04-17T03:25:03.625Z,43.81
2023-04-17T03:26:08.145Z,43.92
2023-04-17T03:27:10.866Z,43.68
2023-04-17T03:28:15.323Z,45.01
2023-04-17T03:29:17.892Z,44.15
2023-04-17T03:30:21.440Z,44.75
2023-04-17T03:31:25.931Z,45.61
2023-04-17T03:32:29.681Z,43.36
2023-04-17T03:33:32.076Z,43.07
2023-04-17T03:34:35.332Z,43.11
2023-04-17T03:35:38.518Z,43.51
2023-04-17T03:36:41.993Z,42.96
2023-04-17T03:37:44.466Z,43.99
2023-04-17T03:38:48.317Z,42.64
2023-04-17T03:39:50.643Z,44.29
2023-04-17T03:40:54.219Z,43.32
2023-04-17T03:41:56.525Z,45.86
2023-04-17T03:43:00.532Z,42.78
2023-04-17T03:44:03.037Z,43.21
2023-04-17T03:45:07.325Z,43.24
2023-04-17T03:46:10.167Z,42.63
2023-04-17T03:47:15.661Z,43.04
2023-04-17T03:48:18.220Z,43.17
2023-04-17T03:49:21.882Z,44.79
2023-04-17T03:50:24.534Z,42.92
2023-04-17T03:51:28.803Z,45.08
2023-04-17T03:52:31.226Z,42.40
2023-04-17T03:53:34.805Z,45.44
2023-04-17T03:54:37.367Z,43.74
2023-04-17T03:55:40.995Z,42.67
2023-04-17T03:56:43.628Z,42.90
2023-04-17T03:57:48.745Z,42.91
2023-04-17T03:58:51.735Z,42.70
2023-04-17T03:59:55.459Z,43.48
2023-04-17T04:00:58.753Z,42.42
2023-04-17T04:02:02.427Z,42.27
2023-04-17T04:03:07.807Z,42.50
2023-04-17T04:04:12.509Z,42.48
2023-04-17T04:05:15.996Z,43.61
2023-04-17T04:06:20.469Z,42.24
2023-04-17T04:07:23.055Z,42.33
2023-04-17T04:08:27.268Z,42.97
2023-04-17T04:09:30.039Z,42.24
2023-04-17T04:10:33.879Z,42.38
2023-04-17T04:11:36.854Z,42.89
2023-04-17T04:12:41.213Z,42.71
2023-04-17T04:13:43.839Z,43.05
2023-04-17T04:14:47.432Z,43.12
2023-04-17T04:15:50.224Z,43.03
2023-04-17T04:16:54.269Z,42.20
2023-04-17T04:17:56.849Z,41.95
2023-04-17T04:19:02.002Z,41.88
2023-04-17T04:20:05.326Z,42.45
2023-04-17T04:21:08.982Z,42.76
2023-04-17T04:22:13.702Z,42.27
2023-04-17T04:23:17.272Z,45.13
2023-04-17T04:24:20.549Z,42.07
2023-04-17T04:25:24.148Z,42.80
2023-04-17T04:26:27.339Z,42.62
2023-04-17T04:27:33.014Z,42.53
2023-04-17T04:28:35.619Z,44.32
2023-04-17T04:29:39.266Z,42.68
2023-04-17T04:30:41.800Z,43.01
2023-04-17T04:31:47.141Z,42.70
2023-04-17T04:32:49.684Z,42.81
2023-04-17T04:33:55.436Z,42.63
2023-04-17T04:35:02.432Z,42.72
2023-04-17T04:36:06.744Z,44.49
2023-04-17T04:37:09.546Z,44.65
2023-04-17T04:38:14.518Z,45.10
2023-04-17T04:39:20.882Z,46.20
2023-04-17T04:40:24.725Z,46.02
2023-04-17T04:41:27.145Z,46.27
2023-04-17T04:42:30.550Z,47.57
2023-04-17T04:43:33.849Z,47.33
2023-04-17T04:44:37.870Z,47.10
2023-04-17T04:45:40.677Z,47.78
2023-04-17T04:46:44.074Z,47.16
2023-04-17T04:47:46.621Z,47.19
2023-04-17T04:48:50.307Z,48.29
2023-04-17T04:49:53.247Z,47.55
2023-04-17T04:50:58.398Z,47.84
2023-04-17T04:52:00.778Z,47.49
2023-04-17T04:53:04.379Z,47.06
2023-04-17T04:54:07.093Z,47.31
2023-04-17T04:55:10.838Z,46.86
2023-04-17T04:56:13.259Z,47.20
2023-04-17T04:57:17.259Z,47.75
2023-04-17T04:58:19.828Z,48.21
2023-04-17T04:59:23.409Z,48.63
2023-04-17T05:00:26.539Z,48.72
2023-04-17T05:01:30.398Z,50.09
2023-04-17T05:02:33.430Z,50.68
2023-04-17T05:03:37.732Z,52.01
2023-04-17T05:04:40.429Z,52.30
2023-04-17T05:05:45.059Z,52.67
2023-04-17T05:06:49.824Z,52.52
2023-04-17T05:07:53.726Z,52.67
2023-04-17T05:08:57.276Z,52.61
2023-04-17T05:09:59.549Z,53.62
2023-04-17T05:11:03.031Z,53.46
2023-04-17T05:12:06.550Z,53.39
2023-04-17T05:13:10.471Z,53.26
2023-04-17T05:14:13.626Z,53.71
2023-04-17T05:15:17.585Z,54.46
2023-04-17T05:16:21.030Z,54.95
2023-04-17T05:17:23.679Z,55.07
2023-04-17T05:18:27.495Z,55.33
2023-04-17T05:19:30.531Z,55.46
2023-04-17T05:20:33.993Z,56.23
2023-04-17T05:21:36.527Z,56.04
2023-04-17T05:22:41.526Z,56.60
2023-04-17T05:23:43.915Z,56.69
2023-04-17T05:24:47.626Z,56.90
2023-04-17T05:25:50.785Z,57.82
2023-04-17T05:26:54.863Z,57.84
2023-04-17T05:27:57.332Z,57.58
2023-04-17T05:29:01.000Z,58.13
2023-04-17T05:30:03.616Z,57.65
2023-04-17T05:31:07.587Z,57.06
2023-04-17T05:32:10.558Z,56.99
2023-04-17T05:33:14.158Z,57.28
2023-04-17T05:34:16.544Z,57.40
2023-04-17T05:35:19.984Z,57.38
2023-04-17T05:36:22.947Z,57.75
2023-04-17T05:37:26.319Z,58.65
2023-04-17T05:38:32.078Z,58.59
2023-04-17T05:39:34.690Z,59.03
2023-04-17T05:40:38.285Z,59.67
2023-04-17T05:41:40.715Z,59.31
2023-04-17T05:42:44.824Z,59.06
2023-04-17T05:43:47.530Z,59.45
2023-04-17T05:44:51.183Z,59.44
2023-04-17T05:45:53.926Z,58.70
2023-04-17T05:47:00.244Z,59.39
2023-04-17T05:48:03.423Z,60.01
2023-04-17T05:49:07.306Z,60.01
2023-04-17T05:50:10.119Z,60.96
2023-04-17T05:51:14.092Z,61.18
2023-04-17T05:52:18.014Z,61.69
2023-04-17T05:53:21.366Z,61.52
2023-04-17T05:54:25.136Z,60.90
2023-04-17T05:55:28.723Z,61.29
2023-04-17T05:56:31.732Z,61.89
2023-04-17T05:57:35.845Z,61.98
2023-04-17T05:58:38.513Z,61.67
2023-04-17T05:59:42.167Z,61.89
2023-04-17T06:00:45.197Z,61.93
2023-04-17T06:01:48.920Z,62.66
2023-04-17T06:02:51.649Z,63.42
2023-04-17T06:03:55.376Z,61.35
2023-04-17T06:04:58.750Z,61.55
2023-04-17T06:06:02.675Z,62.17
2023-04-17T06:07:06.338Z,61.14
2023-04-17T06:08:09.963Z,61.65
2023-04-17T06:09:12.933Z,60.25
2023-04-17T06:10:18.090Z,61.31
2023-04-17T06:11:20.747Z,62.02
2023-04-17T06:12:24.384Z,59.41
2023-04-17T06:13:27.344Z,60.54
2023-04-17T06:14:30.806Z,60.11
2023-04-17T06:15:33.215Z,60.13
2023-04-17T06:16:37.254Z,59.95
2023-04-17T06:17:41.032Z,58.31
2023-04-17T06:18:44.393Z,59.14
2023-04-17T06:19:46.758Z,60.06
2023-04-17T06:20:50.951Z,60.62
2023-04-17T06:21:53.523Z,61.82
2023-04-17T06:22:57.279Z,61.64
2023-04-17T06:24:00.054Z,61.56
2023-04-17T06:25:03.560Z,61.94
2023-04-17T06:26:07.487Z,61.37
2023-04-17T06:27:11.074Z,61.41
2023-04-17T06:28:13.730Z,61.25
2023-04-17T06:29:17.538Z,61.36
2023-04-17T06:30:21.479Z,61.54
2023-04-17T06:31:24.955Z,61.38
2023-04-17T06:32:27.446Z,60.35
2023-04-17T06:33:30.982Z,60.22
2023-04-17T06:34:33.442Z,60.71
2023-04-17T06:35:39.633Z,59.08
2023-04-17T06:36:42.159Z,59.64
2023-04-17T06:37:45.512Z,59.10
2023-04-17T06:38:48.278Z,58.64
2023-04-17T06:39:51.871Z,58.77
2023-04-17T06:40:54.174Z,58.07
2023-04-17T06:41:59.451Z,57.55
2023-04-17T06:43:02.074Z,57.62
2023-04-17T06:44:05.523Z,57.07
2023-04-17T06:45:10.418Z,56.49
2023-04-17T06:46:14.000Z,56.80
2023-04-17T06:47:16.409Z,56.10
2023-04-17T06:48:19.758Z,55.32
2023-04-17T06:49:22.463Z,55.64
2023-04-17T06:50:26.436Z,55.50
2023-04-17T06:51:29.387Z,56.51
2023-04-17T06:52:32.735Z,56.37
2023-04-17T06:53:35.141Z,54.68
2023-04-17T06:54:40.416Z,54.48
2023-04-17T06:55:42.880Z,53.97
2023-04-17T06:56:46.372Z,52.18
2023-04-17T06:57:50.231Z,51.82
2023-04-17T06:58:54.746Z,51.21
2023-04-17T06:59:57.424Z,51.59
2023-04-17T07:01:00.914Z,51.70
2023-04-17T07:02:03.675Z,52.39
2023-04-17T07:03:07.914Z,52.49
2023-04-17T07:04:10.909Z,52.75
2023-04-17T07:05:14.420Z,52.40
2023-04-17T07:06:17.383Z,52.20
2023-04-17T07:07:21.337Z,51.52
2023-04-17T07:08:23.907Z,50.37
2023-04-17T07:09:27.604Z,49.89
2023-04-17T07:10:29.990Z,48.88
2023-04-17T07:11:33.493Z,47.70
2023-04-17T07:12:36.339Z,46.58
2023-04-17T07:13:41.409Z,45.90
2023-04-17T07:14:43.998Z,46.22
2023-04-17T07:15:52.877Z,44.05
2023-04-17T07:16:57.011Z,42.92
2023-04-17T07:17:59.926Z,41.45
2023-04-17T07:19:03.346Z,40.41
2023-04-17T07:20:08.692Z,39.01
2023-04-17T07:21:12.195Z,38.34
2023-04-17T07:22:14.448Z,39.07
2023-04-17T07:23:17.697Z,38.24
2023-04-17T07:24:20.022Z,38.08
2023-04-17T07:25:23.339Z,38.36
2023-04-17T07:26:26.724Z,38.37
2023-04-17T07:27:29.158Z,38.21
2023-04-17T07:28:32.592Z,37.51
2023-04-17T07:29:36.432Z,38.89
2023-04-17T07:30:39.833Z,38.47
2023-04-17T07:31:43.318Z,39.43
2023-04-17T07:32:47.083Z,38.66
2023-04-17T07:33:50.726Z,37.77
2023-04-17T07:34:54.122Z,37.98
2023-04-17T07:35:56.416Z,38.87
2023-04-17T07:36:59.727Z,39.64
2023-04-17T07:38:04.493Z,37.53
2023-04-17T07:39:08.236Z,38.33
2023-04-17T07:40:13.621Z,37.54
2023-04-17T07:41:17.913Z,37.68
2023-04-17T07:42:20.235Z,37.36
2023-04-17T07:43:23.466Z,37.33
2023-04-17T07:44:26.815Z,39.23
2023-04-17T07:45:39.123Z,39.91
2023-04-17T07:46:42.634Z,39.94
2023-04-17T07:47:46.065Z,40.52
2023-04-17T07:48:48.368Z,39.24
2023-04-17T07:49:51.684Z,38.39
2023-04-17T07:50:55.137Z,38.51
2023-04-17T07:51:57.682Z,38.88
2023-04-17T07:53:01.178Z,39.61
2023-04-17T07:54:04.626Z,40.41
2023-04-17T07:55:08.890Z,40.84
2023-04-17T07:56:13.241Z,41.38
2023-04-17T07:57:18.229Z,41.83
2023-04-17T07:58:20.454Z,39.99
2023-04-17T07:59:24.247Z,40.14
2023-04-17T08:00:26.727Z,38.55
2023-04-17T08:01:32.175Z,41.27
2023-04-17T08:02:35.684Z,41.21
2023-04-17T08:03:41.935Z,38.72
2023-04-17T08:04:44.980Z,40.13
2023-04-17T08:05:48.522Z,40.86
2023-04-17T08:06:52.400Z,39.36
2023-04-17T08:07:55.833Z,39.94
2023-04-17T08:09:00.124Z,39.29
2023-04-17T08:10:03.810Z,38.83
2023-04-17T08:11:07.789Z,39.17
2023-04-17T08:12:11.743Z,39.30
2023-04-17T08:13:14.590Z,39.50
2023-04-17T08:14:20.366Z,40.82
2023-04-17T08:15:22.822Z,41.29
2023-04-17T08:16:26.267Z,41.68
2023-04-17T08:17:31.453Z,40.55
2023-04-17T08:18:39.918Z,40.90
2023-04-17T08:19:42.300Z,40.58
2023-04-17T08:20:46.002Z,40.35
2023-04-17T08:21:48.878Z,40.67
2023-04-17T08:22:52.270Z,41.53
2023-04-17T08:23:54.884Z,41.65
2023-04-17T08:24:58.884Z,41.08
2023-04-17T08:26:03.293Z,41.55
2023-04-17T08:27:06.421Z,42.06
2023-04-17T08:28:10.300Z,44.14
2023-04-17T08:29:12.988Z,44.03
2023-04-17T08:30:19.191Z,45.51
2023-04-17T08:31:23.254Z,45.06
2023-04-17T08:32:26.844Z,47.50
2023-04-17T08:33:31.396Z,47.31
2023-04-17T08:34:36.666Z,46.86
2023-04-17T08:35:40.976Z,47.72
2023-04-17T08:36:43.614Z,46.59
2023-04-17T08:37:48.121Z,47.48
2023-04-17T08:38:52.163Z,47.50
2023-04-17T08:39:55.609Z,47.57
2023-04-17T08:41:03.035Z,48.04
2023-04-17T08:42:14.047Z,48.23
2023-04-17T08:43:21.283Z,46.52
2023-04-17T08:44:23.791Z,46.96
2023-04-17T08:45:27.596Z,47.72
2023-04-17T08:46:31.508Z,48.34
2023-04-17T08:47:36.196Z,48.54
2023-04-17T08:48:41.540Z,48.74
2023-04-17T08:49:46.196Z,48.51
2023-04-17T08:50:51.390Z,48.85
2023-04-17T08:51:53.738Z,48.82
2023-04-17T08:52:57.147Z,49.13
2023-04-17T08:53:59.600Z,49.85
2023-04-17T08:55:03.080Z,50.42
2023-04-17T08:56:08.908Z,50.24
2023-04-17T08:57:11.549Z,49.15
2023-04-17T08:58:16.064Z,48.31
2023-04-17T08:59:18.364Z,49.63
2023-04-17T09:00:26.524Z,48.63
2023-04-17T09:01:30.245Z,49.03
2023-04-17T09:02:34.474Z,47.81
2023-04-17T09:03:45.155Z,47.24
2023-04-17T09:04:48.898Z,46.41
2023-04-17T09:05:59.726Z,47.15
2023-04-17T09:07:02.503Z,47.53
2023-04-17T09:08:15.004Z,47.84
2023-04-17T09:09:18.077Z,48.76
2023-04-17T09:10:22.483Z,47.77
2023-04-17T09:11:25.937Z,48.91
2023-04-17T09:12:29.833Z,48.68
2023-04-17T09:13:42.047Z,47.59
2023-04-17T09:14:44.834Z,47.19
2023-04-17T09:15:50.135Z,49.13
2023-04-17T09:16:54.949Z,48.19
2023-04-17T09:17:59.059Z,47.11
2023-04-17T09:19:09.156Z,46.45
2023-04-17T09:20:12.485Z,48.03
2023-04-17T09:21:18.933Z,47.98
2023-04-17T09:22:22.893Z,47.15
2023-04-17T09:23:27.375Z,46.99
2023-04-17T09:24:38.131Z,46.99
2023-04-17T09:25:41.733Z,47.78
2023-04-17T09:26:44.454Z,47.27
2023-04-17T09:27:48.564Z,48.00
2023-04-17T09:29:04.276Z,49.08
2023-04-17T09:30:08.334Z,48.31
2023-04-17T09:31:27.560Z,47.58
2023-04-17T09:32:31.889Z,48.16
2023-04-17T09:33:36.513Z,48.60
2023-04-17T09:34:42.662Z,47.99
2023-04-17T09:35:46.226Z,49.74
2023-04-17T09:36:56.235Z,50.52
2023-04-17T09:37:59.530Z,49.90
2023-04-17T09:39:06.470Z,49.83
2023-04-17T09:40:12.039Z,50.41
2023-04-17T09:41:24.990Z,49.18
2023-04-17T09:42:27.973Z,48.89
2023-04-17T09:43:43.639Z,49.18
2023-04-17T09:44:46.213Z,49.72
2023-04-17T09:45:52.431Z,48.93
2023-04-17T09:46:55.905Z,48.09
2023-04-17T09:47:59.521Z,48.02
2023-04-17T09:49:09.458Z,47.60
2023-04-17T09:50:16.354Z,47.31
2023-04-17T09:51:19.953Z,46.80
2023-04-17T09:52:25.198Z,47.21
2023-04-17T09:53:29.560Z,47.86
2023-04-17T09:54:33.045Z,48.25
2023-04-17T09:55:38.369Z,48.96
2023-04-17T09:56:41.560Z,48.87
2023-04-17T09:57:46.670Z,49.64
2023-04-17T09:58:50.610Z,49.78
2023-04-17T09:59:59.662Z,49.66
2023-04-17T10:01:04.123Z,49.23
2023-04-17T10:02:08.753Z,48.72
2023-04-17T10:03:18.170Z,49.05
2023-04-17T10:04:22.917Z,48.51
2023-04-17T10:05:29.347Z,48.24
2023-04-17T10:06:33.163Z,48.36
2023-04-17T10:07:38.032Z,48.08
2023-04-17T10:08:41.302Z,46.90
2023-04-17T10:09:46.046Z,47.40
2023-04-17T10:10:50.934Z,46.01
2023-04-17T10:11:54.139Z,45.90
2023-04-17T10:13:01.230Z,46.10
2023-04-17T10:14:11.122Z,45.74
2023-04-17T10:15:16.431Z,46.86
2023-04-17T10:16:20.298Z,45.71
2023-04-17T10:17:24.347Z,46.38
2023-04-17T10:18:28.813Z,46.46
2023-04-17T10:19:32.741Z,46.29
2023-04-17T10:20:39.873Z,43.77
2023-04-17T10:21:42.258Z,42.27
2023-04-17T10:22:46.382Z,42.53
2023-04-17T10:23:49.655Z,41.81
2023-04-17T10:25:13.859Z,40.95
2023-04-17T10:26:41.319Z,40.04
2023-04-17T10:27:45.550Z,40.16
2023-04-17T10:28:50.911Z,41.07
2023-04-17T10:29:54.776Z,41.28
2023-04-17T10:30:58.791Z,42.68
2023-04-17T10:32:28.917Z,44.32
2023-04-17T10:33:32.404Z,44.64
2023-04-17T10:34:35.866Z,44.24
2023-04-17T10:35:41.470Z,44.31
2023-04-17T10:36:57.019Z,43.94
2023-04-17T10:38:06.494Z,44.77
2023-04-17T10:39:15.029Z,44.48
2023-04-17T10:40:21.482Z,43.46
2023-04-17T10:41:27.508Z,43.13
2023-04-17T10:42:31.190Z,43.33
2023-04-17T10:43:34.950Z,43.83
2023-04-17T10:44:40.000Z,43.20
2023-04-17T10:45:59.579Z,42.82
2023-04-17T10:47:07.069Z,41.86
2023-04-17T10:48:21.677Z,41.90
2023-04-17T10:49:25.041Z,40.54
2023-04-17T10:50:30.086Z,40.37
2023-04-17T10:51:44.663Z,41.09
2023-04-17T10:52:47.846Z,41.09
2023-04-17T10:53:53.119Z,41.93
2023-04-17T10:55:06.682Z,40.43
2023-04-17T10:56:09.950Z,39.63
2023-04-17T10:57:13.280Z,39.85
2023-04-17T10:58:17.170Z,39.80
2023-04-17T10:59:22.149Z,40.30
2023-04-17T11:00:33.347Z,40.10
2023-04-17T11:01:40.987Z,40.25
2023-04-17T11:02:45.765Z,40.33
2023-04-17T11:03:49.537Z,39.90
2023-04-17T11:05:07.862Z,39.93
2023-04-17T11:06:13.332Z,40.00
2023-04-17T11:07:17.349Z,42.39
2023-04-17T11:08:21.374Z,42.69
2023-04-17T11:09:27.564Z,42.31
2023-04-17T11:10:31.062Z,42.37
2023-04-17T11:11:44.009Z,42.83
2023-04-17T11:12:49.542Z,42.64
2023-04-17T11:13:53.131Z,41.84
2023-04-17T11:15:03.274Z,42.37
2023-04-17T11:16:06.009Z,41.38
2023-04-17T11:17:10.828Z,40.51
2023-04-17T11:18:14.180Z,40.65
2023-04-17T11:19:21.559Z,41.19
2023-04-17T11:20:27.343Z,40.39
2023-04-17T11:21:30.214Z,40.53
2023-04-17T11:22:36.553Z,40.61
2023-04-17T11:23:40.356Z,39.75
2023-04-17T11:24:42.822Z,39.50
2023-04-17T11:25:47.593Z,39.52
2023-04-17T11:26:50.197Z,38.70
2023-04-17T11:27:56.512Z,39.41
2023-04-17T11:29:01.221Z,39.21
2023-04-17T11:30:04.005Z,39.50
2023-04-17T11:31:07.621Z,39.97
2023-04-17T11:32:13.806Z,41.00
2023-04-17T11:33:17.427Z,40.62
2023-04-17T11:34:20.582Z,41.41
2023-04-17T11:35:29.562Z,42.10
2023-04-17T11:36:34.455Z,43.05
2023-04-17T11:38:06.286Z,41.99
2023-04-17T11:39:11.378Z,42.62
2023-04-17T11:40:14.126Z,43.34
2023-04-17T11:41:17.523Z,43.49
2023-04-17T11:42:28.460Z,44.78
2023-04-17T11:43:37.049Z,45.35
2023-04-17T11:44:43.390Z,44.13
2023-04-17T11:45:49.273Z,43.80
2023-04-17T11:46:55.134Z,43.51
2023-04-17T11:47:57.604Z,43.29
2023-04-17T11:49:01.116Z,43.68
2023-04-17T11:50:04.256Z,44.17
2023-04-17T11:51:08.739Z,43.79
2023-04-17T11:52:11.138Z,43.44
2023-04-17T11:53:17.526Z,43.73
2023-04-17T11:54:28.297Z,44.66
2023-04-17T11:55:31.694Z,45.33
2023-04-17T11:56:35.994Z,44.42
2023-04-17T11:57:44.035Z,43.06
2023-04-17T11:58:48.925Z,43.87
2023-04-17T11:59:51.704Z,43.39
2023-04-17T12:01:06.838Z,43.13
2023-04-17T12:02:10.203Z,42.35
2023-04-17T12:03:35.498Z,44.15
2023-04-17T12:04:40.608Z,44.18
2023-04-17T12:05:43.343Z,44.78
2023-04-17T12:06:46.719Z,44.25
2023-04-17T12:08:00.379Z,43.57
2023-04-17T12:09:07.348Z,43.90
2023-04-17T12:10:10.185Z,44.20
2023-04-17T12:11:20.838Z,43.45
2023-04-17T12:12:24.769Z,43.92
2023-04-17T12:13:27.337Z,43.41
2023-04-17T12:14:31.604Z,42.83
2023-04-17T12:15:35.366Z,42.18
2023-04-17T12:16:39.609Z,42.96
2023-04-17T12:17:42.176Z,43.37
2023-04-17T12:18:46.624Z,43.25
2023-04-17T12:19:49.067Z,43.57
2023-04-17T12:20:52.775Z,42.54
2023-04-17T12:21:55.827Z,42.39
2023-04-17T12:22:59.281Z,42.61
2023-04-17T12:24:07.462Z,43.29
2023-04-17T12:25:11.275Z,44.31
2023-04-17T12:26:15.751Z,43.92
2023-04-17T12:27:19.057Z,43.70
2023-04-17T12:28:22.531Z,43.02
2023-04-17T12:29:40.485Z,42.48
2023-04-17T12:30:47.511Z,42.07
2023-04-17T12:31:51.623Z,41.41
2023-04-17T12:32:54.820Z,41.00
2023-04-17T12:33:59.536Z,39.70
2023-04-17T12:35:04.001Z,39.90
2023-04-17T12:36:10.005Z,39.55
2023-04-17T12:37:12.725Z,40.16
2023-04-17T12:38:16.961Z,39.40
2023-04-17T12:39:21.262Z,39.32
2023-04-17T12:40:26.600Z,39.22
2023-04-17T12:41:30.425Z,40.21
2023-04-17T12:42:42.415Z,39.35
2023-04-17T12:43:52.608Z,39.67
2023-04-17T12:44:55.129Z,41.35
2023-04-17T12:45:58.588Z,42.44
2023-04-17T12:47:01.038Z,40.80
2023-04-17T12:48:05.186Z,40.56
2023-04-17T12:49:07.618Z,40.72
2023-04-17T12:50:13.703Z,41.05
2023-04-17T12:51:17.199Z,41.58
2023-04-17T12:52:20.750Z,41.65
2023-04-17T12:53:24.599Z,42.51
2023-04-17T12:54:28.832Z,42.76
2023-04-17T12:55:32.496Z,41.45
2023-04-17T12:56:36.370Z,41.79
2023-04-17T12:57:40.270Z,41.65
2023-04-17T12:58:43.918Z,41.55
2023-04-17T12:59:46.746Z,41.04
2023-04-17T13:00:50.707Z,40.27
2023-04-17T13:01:53.347Z,38.92
2023-04-17T13:02:57.511Z,38.65
2023-04-17T13:04:00.873Z,39.36
2023-04-17T13:05:06.040Z,40.35
2023-04-17T13:06:08.550Z,41.36
2023-04-17T13:07:12.159Z,41.02
2023-04-17T13:08:16.468Z,41.06
2023-04-17T13:09:20.076Z,41.67
2023-04-17T13:10:25.148Z,41.43
2023-04-17T13:11:27.703Z,42.25
2023-04-17T13:12:32.075Z,42.58
2023-04-17T13:13:34.881Z,42.56
2023-04-17T13:14:39.448Z,41.69
2023-04-17T13:15:46.055Z,41.73
2023-04-17T13:16:50.906Z,42.04
2023-04-17T13:17:54.912Z,42.28
2023-04-17T13:18:57.422Z,41.78
2023-04-17T13:20:01.269Z,42.06
2023-04-17T13:21:04.645Z,41.64
2023-04-17T13:22:07.537Z,42.09
2023-04-17T13:23:12.009Z,42.35
2023-04-17T13:24:15.112Z,43.35
2023-04-17T13:25:18.802Z,44.25
2023-04-17T13:26:22.752Z,44.22
2023-04-17T13:27:26.604Z,42.27
2023-04-17T13:28:29.066Z,43.06
2023-04-17T13:29:32.510Z,42.40
2023-04-17T13:30:38.087Z,43.24
2023-04-17T13:31:42.070Z,43.68
2023-04-17T13:32:47.042Z,44.51
2023-04-17T13:33:50.479Z,44.62
2023-04-17T13:34:54.617Z,43.86
2023-04-17T13:35:58.641Z,42.26
2023-04-17T13:37:02.518Z,41.78
2023-04-17T13:38:06.129Z,42.16
2023-04-17T13:39:09.847Z,42.52
2023-04-17T13:40:15.350Z,42.75
2023-04-17T13:41:19.534Z,41.35
2023-04-17T13:42:24.391Z,41.29
2023-04-17T13:43:26.800Z,40.97
2023-04-17T13:44:30.642Z,40.07
2023-04-17T13:45:33.261Z,39.24
2023-04-17T13:46:37.323Z,38.39
2023-04-17T13:47:41.181Z,38.71
2023-04-17T13:48:43.630Z,37.47
2023-04-17T13:49:47.072Z,36.50